Time;durP1;ratioP1;P1;durP2;ratioP2;P2;SDS_P1;SDS_P2;PMS_P1;PMS_P2;Temp;Humidity;BMP_temperature;BMP_pressure;BME280_temperature;BME280_humidity;BME280_pressure;Samples;Min_cycle;Max_cycle;Signal;HPM_P1;HPM_P2
2021/10/13 00:10:58;;;;;;;2.65;0.50;;;;;;;;;;6260136;22;20204;31
2021/10/13 00:17:35;;;;;;;0.65;0.50;;;;;;;;;;6290823;22;20209;31
2021/10/13 00:31:34;;;;;;;1.20;0.50;;;;;;;;;;6346144;22;20200;31
2021/10/13 00:35:44;;;;;;;0.35;0.30;;;;;;;;;;6325375;22;20509;31
2021/10/13 00:49:56;;;;;;;1.27;0.35;;;;;;;;;;6294496;22;21945;31
2021/10/13 00:59:17;;;;;;;1.33;0.50;;;;;;;;;;6291266;22;21068;31
2021/10/13 01:03:37;;;;;;;0.93;0.40;;;;;;;;;;6293558;22;20544;31
2021/10/13 01:10:32;;;;;;;1.05;0.65;;;;;;;;;;6293790;22;22090;31
2021/10/13 01:17:10;;;;;;;2.67;0.57;;;;;;;;;;6350134;22;20536;31
2021/10/13 01:26:14;;;;;;;1.08;0.40;;;;;;;;;;6322242;22;20195;31
2021/10/13 01:33:06;;;;;;;0.65;0.40;;;;;;;;;;6138584;23;20244;31
2021/10/13 01:37:07;;;;;;;0.68;0.40;;;;;;;;;;6325064;22;20517;31
2021/10/13 01:43:39;;;;;;;0.30;0.22;;;;;;;;;;6229885;22;20514;31
2021/10/13 02:06:43;;;;;;;0.40;0.22;;;;;;;;;;6198275;22;20194;31
2021/10/13 02:11:23;;;;;;;2.20;0.32;;;;;;;;;;6350935;22;20540;31
2021/10/13 02:18:15;;;;;;;0.40;0.28;;;;;;;;;;6294532;22;23401;31
2021/10/13 02:34:05;;;;;;;0.57;0.40;;;;;;;;;;6139193;23;20681;-56
2021/10/13 02:47:43;;;;;;;0.20;0.20;;;;;;;;;;5864160;22;20212;31
2021/10/13 02:54:35;;;;;;;2.20;0.50;;;;;;;;;;6288767;22;20201;31
2021/10/13 03:13:01;;;;;;;0.68;0.30;;;;;;;;;;6324552;22;20542;31
2021/10/13 03:15:27;;;;;;;1.20;0.35;;;;;;;;;;6321548;22;20214;31
2021/10/13 03:44:04;;;;;;;1.58;0.70;;;;;;;;;;6290232;22;20204;31
2021/10/13 03:48:17;;;;;;;0.93;0.40;;;;;;;;;;6293540;22;20518;31
2021/10/13 03:57:48;;;;;;;1.00;0.40;;;;;;;;;;6259796;22;20204;31
2021/10/13 04:05:05;;;;;;;2.75;0.40;;;;;;;;;;6290097;22;20200;31
2021/10/13 04:11:44;;;;;;;0.60;0.40;;;;;;;;;;6205175;22;20206;31
2021/10/13 04:30:06;;;;;;;1.10;0.57;;;;;;;;;;6294076;22;20523;31
2021/10/13 04:52:39;;;;;;;2.72;0.63;;;;;;;;;;6289330;22;20565;31
2021/10/13 04:59:28;;;;;;;0.40;0.38;;;;;;;;;;6321570;22;20772;31
2021/10/13 05:03:37;;;;;;;1.17;0.50;;;;;;;;;;6170680;22;20514;31
2021/10/13 05:10:49;;;;;;;0.70;0.50;;;;;;;;;;6293670;22;21370;31
2021/10/13 05:17:26;;;;;;;1.00;0.50;;;;;;;;;;6324363;22;20923;31
2021/10/13 05:27:09;;;;;;;1.95;0.60;;;;;;;;;;6347070;22;20223;31
2021/10/13 05:31:21;;;;;;;1.40;0.70;;;;;;;;;;6294263;22;20523;31
2021/10/13 06:00:55;;;;;;;7.05;0.88;;;;;;;;;;6298664;22;20200;31
2021/10/13 06:07:58;;;;;;;2.05;1.00;;;;;;;;;;6334350;22;20202;31
2021/10/13 06:12:09;;;;;;;1.75;1.02;;;;;;;;;;6292943;22;20523;31
2021/10/13 06:27:52;;;;;;;0.77;0.60;;;;;;;;;;6320856;22;20203;31
2021/10/13 06:32:00;;;;;;;4.82;1.02;;;;;;;;;;6169545;22;20525;31
2021/10/13 06:34:26;;;;;;;1.70;0.73;;;;;;;;;;6137533;23;20188;31
2021/10/13 06:48:02;;;;;;;1.13;0.70;;;;;;;;;;6288855;22;20200;31
2021/10/13 07:06:48;;;;;;;2.60;0.88;;;;;;;;;;6176009;22;20542;31
2021/10/13 07:09:14;;;;;;;1.83;0.50;;;;;;;;;;6172910;23;20199;31
2021/10/13 07:13:58;;;;;;;1.95;0.68;;;;;;;;;;6347487;22;20536;31
2021/10/13 07:36:48;;;;;;;4.50;0.60;;;;;;;;;;6259152;22;20208;31
2021/10/13 07:50:36;;;;;;;2.28;0.60;;;;;;;;;;6199644;22;20470;-60
2021/10/13 08:11:00;;;;;;;2.03;0.68;;;;;;;;;;6136866;23;20204;31
2021/10/13 08:24:29;;;;;;;1.40;0.45;;;;;;;;;;6198186;22;20202;31
2021/10/13 08:31:39;;;;;;;3.10;0.30;;;;;;;;;;6260109;22;20200;31
2021/10/13 08:38:16;;;;;;;0.20;0.20;;;;;;;;;;6322010;22;20557;31
2021/10/13 08:50:07;;;;;;;0.20;0.20;;;;;;;;;;6323804;22;21443;-61
2021/10/13 08:52:32;;;;;;;0.30;0.20;;;;;;;;;;6296560;22;20185;31
2021/10/13 09:20:03;;;;;;;0.57;0.40;;;;;;;;;;6138709;23;20204;31
2021/10/13 09:26:41;;;;;;;1.48;0.30;;;;;;;;;;6138569;23;20207;31
2021/10/13 09:31:06;;;;;;;0.40;0.30;;;;;;;;;;6292773;22;20516;31
2021/10/13 09:40:57;;;;;;;0.60;0.25;;;;;;;;;;6302342;22;20220;-60
2021/10/13 09:43:35;;;;;;;0.88;0.20;;;;;;;;;;6316164;22;20145;-60
2021/10/13 09:46:12;;;;;;;0.60;0.30;;;;;;;;;;6316028;22;20624;-60
2021/10/13 09:48:42;;;;;;;2.50;0.30;;;;;;;;;;6316445;22;20405;-60
2021/10/13 09:51:21;;;;;;;0.90;0.40;;;;;;;;;;6316016;22;20134;-60
2021/10/13 09:53:48;;;;;;;0.90;0.50;;;;;;;;;;6316496;22;20170;-60
2021/10/13 09:56:32;;;;;;;0.52;0.30;;;;;;;;;;6316051;22;20277;-60
2021/10/13 09:59:08;;;;;;;1.17;0.30;;;;;;;;;;6316112;22;20135;-60
2021/10/13 10:01:34;;;;;;;0.60;0.47;;;;;;;;;;6316311;22;20448;-60
2021/10/13 10:04:00;;;;;;;0.45;0.35;;;;;;;;;;6315876;22;20139;-61
2021/10/13 10:06:27;;;;;;;0.63;0.40;;;;;;;;;;6316122;22;20341;-61
2021/10/13 10:08:56;;;;;;;0.75;0.50;;;;;;;;;;6316014;22;20146;-61
2021/10/13 10:11:35;;;;;;;0.30;0.30;;;;;;;;;;6316057;22;20582;-65
2021/10/13 10:14:02;;;;;;;1.15;0.50;;;;;;;;;;6316444;22;20142;-60
2021/10/13 10:16:32;;;;;;;1.20;0.40;;;;;;;;;;6315924;22;20170;-60
2021/10/13 10:19:17;;;;;;;3.03;0.40;;;;;;;;;;6316027;22;20486;-60
2021/10/13 10:21:56;;;;;;;1.13;0.32;;;;;;;;;;6316324;22;20593;-60
2021/10/13 10:24:26;;;;;;;1.10;0.30;;;;;;;;;;6316760;22;20138;-60
2021/10/13 10:26:52;;;;;;;1.45;0.40;;;;;;;;;;6316237;22;20142;-60
2021/10/13 10:29:18;;;;;;;1.38;0.40;;;;;;;;;;6315480;22;20641;-60
2021/10/13 10:31:53;;;;;;;0.57;0.30;;;;;;;;;;6315998;22;20491;-61
2021/10/13 10:34:20;;;;;;;2.13;0.60;;;;;;;;;;6315965;22;20130;-60
2021/10/13 10:36:45;;;;;;;2.22;0.40;;;;;;;;;;6316061;22;20170;-60
2021/10/13 10:39:13;;;;;;;2.42;0.50;;;;;;;;;;6316123;22;20145;-60
2021/10/13 10:41:40;;;;;;;0.93;0.30;;;;;;;;;;6315284;22;20464;-61
2021/10/13 10:44:24;;;;;;;0.93;0.40;;;;;;;;;;6315683;22;20131;-60
2021/10/13 10:46:59;;;;;;;1.23;0.40;;;;;;;;;;6315691;22;20219;-59
2021/10/13 10:49:47;;;;;;;0.80;0.60;;;;;;;;;;6308952;22;20143;-60
2021/10/13 10:52:13;;;;;;;2.65;0.55;;;;;;;;;;6307841;22;20142;-61
2021/10/13 10:54:39;;;;;;;0.70;0.60;;;;;;;;;;6307001;22;20414;-62
2021/10/13 10:57:23;;;;;;;1.27;0.43;;;;;;;;;;6306925;22;20287;-60
2021/10/13 10:59:49;;;;;;;0.88;0.50;;;;;;;;;;6279775;22;20216;-61
2021/10/13 11:02:21;;;;;;;1.30;0.85;;;;;;;;;;6306446;22;20547;-61
2021/10/13 11:05:00;;;;;;;2.90;0.85;;;;;;;;;;6306889;22;20516;-61
2021/10/13 11:07:27;;;;;;;0.30;0.30;;;;;;;;;;6307492;22;20135;-61
2021/10/13 11:10:19;;;;;;;0.60;0.38;;;;;;;;;;6308318;22;20139;-60
2021/10/13 11:12:46;;;;;;;1.35;0.57;;;;;;;;;;6302554;22;20147;-59
2021/10/13 11:15:31;;;;;;;1.27;0.43;;;;;;;;;;6308697;22;20143;-60
2021/10/13 11:17:57;;;;;;;1.75;0.30;;;;;;;;;;6307826;22;20173;-59
2021/10/13 11:25:35;;;;;;;0.68;0.40;;;;;;;;;;6268078;22;20169;-63
2021/10/13 11:28:04;;;;;;;1.83;0.40;;;;;;;;;;6308122;22;20231;-61
2021/10/13 11:30:36;;;;;;;1.77;0.80;;;;;;;;;;6308451;22;20234;-63
2021/10/13 11:33:03;;;;;;;2.00;0.40;;;;;;;;;;6308630;22;20139;-63
2021/10/13 11:35:29;;;;;;;0.60;0.50;;;;;;;;;;6308280;22;20335;-62
2021/10/13 11:37:55;;;;;;;2.10;0.55;;;;;;;;;;6308198;22;20178;-63
2021/10/13 11:40:22;;;;;;;1.38;0.43;;;;;;;;;;6308587;22;20429;-62
2021/10/13 11:42:48;;;;;;;0.65;0.40;;;;;;;;;;6308634;22;20139;-61
2021/10/13 11:45:18;;;;;;;0.70;0.40;;;;;;;;;;6308148;22;20222;-62
2021/10/13 11:47:45;;;;;;;1.83;0.40;;;;;;;;;;6308314;22;20163;-62
2021/10/13 11:50:14;;;;;;;0.82;0.40;;;;;;;;;;6308339;22;20143;-62
2021/10/13 11:52:41;;;;;;;0.38;0.30;;;;;;;;;;6308546;22;20142;-62
2021/10/13 11:55:08;;;;;;;0.68;0.30;;;;;;;;;;6308060;22;20138;-62
2021/10/13 11:57:35;;;;;;;1.45;0.50;;;;;;;;;;6307774;22;20167;-62
2021/10/13 12:00:28;;;;;;;0.50;0.30;;;;;;;;;;6307419;22;20149;-62
2021/10/13 12:02:57;;;;;;;0.77;0.30;;;;;;;;;;6302226;22;20149;-62
2021/10/13 12:05:28;;;;;;;1.33;0.40;;;;;;;;;;6308008;22;20445;-61
2021/10/13 12:07:59;;;;;;;0.50;0.45;;;;;;;;;;6307820;22;20210;-62
2021/10/13 12:10:33;;;;;;;1.92;0.50;;;;;;;;;;6307961;22;20570;-61
2021/10/13 12:13:03;;;;;;;0.40;0.40;;;;;;;;;;6308271;22;20185;-63
2021/10/13 12:15:30;;;;;;;0.80;0.47;;;;;;;;;;6308665;22;20344;-63
2021/10/13 12:18:08;;;;;;;1.55;0.47;;;;;;;;;;6308066;22;20224;-62
2021/10/13 12:20:34;;;;;;;2.30;0.40;;;;;;;;;;6307989;22;20557;-63
2021/10/13 12:23:08;;;;;;;2.38;0.50;;;;;;;;;;6307849;22;20143;-63
2021/10/13 12:25:34;;;;;;;1.40;0.40;;;;;;;;;;6307789;22;20162;-63
2021/10/13 12:28:00;;;;;;;1.73;0.68;;;;;;;;;;6308027;22;20142;-63
2021/10/13 12:30:34;;;;;;;0.68;0.30;;;;;;;;;;6307741;22;20522;-63
2021/10/13 12:33:12;;;;;;;1.95;0.40;;;;;;;;;;6307998;22;20443;-63
2021/10/13 12:35:39;;;;;;;3.95;0.73;;;;;;;;;;6307505;22;20436;-63
2021/10/13 12:38:19;;;;;;;1.98;0.50;;;;;;;;;;6307929;22;20181;-63
2021/10/13 12:41:00;;;;;;;2.38;0.55;;;;;;;;;;6308119;22;20432;-63
2021/10/13 12:43:26;;;;;;;0.75;0.40;;;;;;;;;;6308065;22;20159;-61
2021/10/13 12:45:52;;;;;;;0.80;0.40;;;;;;;;;;6307726;22;20166;-62
2021/10/13 12:48:21;;;;;;;2.67;0.50;;;;;;;;;;6307863;22;20167;-62
2021/10/13 12:51:06;;;;;;;2.15;0.50;;;;;;;;;;6308021;22;20149;-62
2021/10/13 12:53:33;;;;;;;2.05;0.40;;;;;;;;;;6307929;22;20135;-62
2021/10/13 12:55:59;;;;;;;1.05;0.40;;;;;;;;;;6307989;22;20143;-62
2021/10/13 12:58:26;;;;;;;2.90;0.55;;;;;;;;;;6307889;22;20165;-62
2021/10/13 13:00:51;;;;;;;0.40;0.30;;;;;;;;;;6309108;22;20135;-62
2021/10/13 13:03:17;;;;;;;2.92;0.50;;;;;;;;;;6308385;22;20442;-61
2021/10/13 13:05:43;;;;;;;1.25;0.40;;;;;;;;;;6308679;22;20422;-62
2021/10/13 13:08:09;;;;;;;1.20;0.40;;;;;;;;;;6308726;22;20147;-62
2021/10/13 13:10:35;;;;;;;3.33;0.70;;;;;;;;;;6308707;22;20151;-62
2021/10/13 13:13:02;;;;;;;0.95;0.50;;;;;;;;;;6308079;22;20503;-62
2021/10/13 13:15:28;;;;;;;1.48;0.50;;;;;;;;;;6308637;22;20233;-62
2021/10/13 13:17:54;;;;;;;2.08;0.55;;;;;;;;;;6308504;22;20301;-62
2021/10/13 13:20:20;;;;;;;1.80;0.60;;;;;;;;;;6308107;22;20188;-62
2021/10/13 13:22:46;;;;;;;2.60;0.60;;;;;;;;;;6308483;22;20139;-62
2021/10/13 13:25:12;;;;;;;2.05;0.50;;;;;;;;;;6308209;22;20185;-62
2021/10/13 13:27:38;;;;;;;2.33;0.60;;;;;;;;;;6308502;22;20139;-62
2021/10/13 13:30:04;;;;;;;2.13;0.60;;;;;;;;;;6308091;22;20146;-62
2021/10/13 13:32:32;;;;;;;1.48;0.57;;;;;;;;;;6307900;22;20147;-63
2021/10/13 13:34:58;;;;;;;1.02;0.60;;;;;;;;;;6308393;22;20139;-62
2021/10/13 13:37:24;;;;;;;1.05;0.40;;;;;;;;;;6307949;22;20189;-62
2021/10/13 13:39:50;;;;;;;1.52;0.60;;;;;;;;;;6307825;22;20162;-62
2021/10/13 13:42:16;;;;;;;4.22;0.50;;;;;;;;;;6308056;22;20218;-62
2021/10/13 13:44:42;;;;;;;2.20;0.60;;;;;;;;;;6307803;22;20153;-62
2021/10/13 13:47:08;;;;;;;3.83;1.30;;;;;;;;;;6307852;22;20143;-62
2021/10/13 13:49:34;;;;;;;1.67;0.70;;;;;;;;;;6308284;22;20165;-62
2021/10/13 13:52:00;;;;;;;3.78;0.50;;;;;;;;;;6307883;22;20597;-62
2021/10/13 13:54:26;;;;;;;4.03;0.80;;;;;;;;;;6308160;22;20413;-62
2021/10/13 13:56:52;;;;;;;2.72;0.60;;;;;;;;;;6308134;22;20172;-62
2021/10/13 13:59:18;;;;;;;2.03;0.57;;;;;;;;;;6307960;22;20200;-62
2021/10/13 14:01:43;;;;;;;1.83;0.60;;;;;;;;;;6307501;22;20600;-62
2021/10/13 14:04:09;;;;;;;3.65;0.85;;;;;;;;;;6307484;22;20135;-62
2021/10/13 14:06:35;;;;;;;2.05;0.73;;;;;;;;;;6307556;22;20550;-62
2021/10/13 14:09:01;;;;;;;3.88;0.82;;;;;;;;;;6307499;22;20147;-61
2021/10/13 14:11:27;;;;;;;3.00;0.70;;;;;;;;;;6307334;22;20150;-62
2021/10/13 14:13:53;;;;;;;1.30;0.75;;;;;;;;;;6307301;22;20143;-62
2021/10/13 14:16:19;;;;;;;2.05;0.88;;;;;;;;;;6307177;22;20189;-62
2021/10/13 14:18:45;;;;;;;5.30;0.80;;;;;;;;;;6307108;22;20134;-62
2021/10/13 14:21:11;;;;;;;2.70;0.88;;;;;;;;;;6307573;22;20451;-62
2021/10/13 14:23:37;;;;;;;5.65;0.85;;;;;;;;;;6308263;22;20157;-62
2021/10/13 14:26:03;;;;;;;7.13;1.13;;;;;;;;;;6309111;22;20162;-62
2021/10/13 14:28:29;;;;;;;3.63;0.80;;;;;;;;;;6309091;22;20181;-62
2021/10/13 14:30:56;;;;;;;7.03;0.95;;;;;;;;;;6309026;22;20170;-62
2021/10/13 14:33:22;;;;;;;4.63;1.00;;;;;;;;;;6308952;22;20222;-62
2021/10/13 14:35:48;;;;;;;2.13;1.17;;;;;;;;;;6308700;22;20216;-62
2021/10/13 14:38:14;;;;;;;2.10;0.70;;;;;;;;;;6308707;22;20601;-62
2021/10/13 14:40:39;;;;;;;3.42;0.77;;;;;;;;;;6309384;22;20207;-62
2021/10/13 14:43:06;;;;;;;3.25;0.68;;;;;;;;;;6309229;22;20143;-62
2021/10/13 14:45:32;;;;;;;3.60;0.73;;;;;;;;;;6308921;22;20139;-62
2021/10/13 14:47:58;;;;;;;2.60;0.93;;;;;;;;;;6309178;22;20165;-62
2021/10/13 14:50:24;;;;;;;3.10;0.77;;;;;;;;;;6308918;22;20538;-62
2021/10/13 14:52:50;;;;;;;3.50;1.02;;;;;;;;;;6308990;22;20142;-62
2021/10/13 14:55:16;;;;;;;3.60;0.70;;;;;;;;;;6308652;22;20139;-62
2021/10/13 14:57:42;;;;;;;2.95;0.90;;;;;;;;;;6309274;22;20174;-62
2021/10/13 15:00:08;;;;;;;2.70;0.82;;;;;;;;;;6308765;22;20139;-62
2021/10/13 15:02:35;;;;;;;4.60;0.90;;;;;;;;;;6309090;22;20139;-62
2021/10/13 15:05:00;;;;;;;2.72;0.90;;;;;;;;;;6309040;22;20143;-62
2021/10/13 15:07:26;;;;;;;4.45;0.90;;;;;;;;;;6309849;22;20154;-62
2021/10/13 15:09:52;;;;;;;4.53;0.90;;;;;;;;;;6309305;22;20139;-61
2021/10/13 15:12:18;;;;;;;2.15;0.95;;;;;;;;;;6310231;22;20204;-62
2021/10/13 15:14:44;;;;;;;3.47;0.90;;;;;;;;;;6310367;22;20155;-62
2021/10/13 15:17:10;;;;;;;3.30;1.00;;;;;;;;;;6308797;22;20209;-62
2021/10/13 15:19:37;;;;;;;5.35;1.00;;;;;;;;;;6308426;22;20508;-62
2021/10/13 15:22:03;;;;;;;3.60;0.90;;;;;;;;;;6308690;22;20167;-62
2021/10/13 15:24:31;;;;;;;4.28;1.08;;;;;;;;;;6308496;22;20545;-62
2021/10/13 15:26:57;;;;;;;3.45;0.85;;;;;;;;;;6308975;22;20159;-62
2021/10/13 15:29:24;;;;;;;3.03;1.10;;;;;;;;;;6308142;22;20173;-62
2021/10/13 15:31:51;;;;;;;5.30;1.38;;;;;;;;;;6308543;22;20154;-62
2021/10/13 15:34:18;;;;;;;6.35;1.20;;;;;;;;;;6308343;22;20155;-62
2021/10/13 15:36:44;;;;;;;5.50;1.40;;;;;;;;;;6308609;22;20172;-62
2021/10/13 15:39:10;;;;;;;3.33;1.48;;;;;;;;;;6308491;22;20162;-61
2021/10/13 15:41:36;;;;;;;5.75;1.05;;;;;;;;;;6308579;22;20165;-62
2021/10/13 15:44:02;;;;;;;4.75;1.27;;;;;;;;;;6308078;22;20529;-61
2021/10/13 15:46:29;;;;;;;3.83;1.45;;;;;;;;;;6308592;22;20245;-61
2021/10/13 15:48:55;;;;;;;4.05;1.33;;;;;;;;;;6308301;22;20499;-62
2021/10/13 15:51:21;;;;;;;4.43;1.33;;;;;;;;;;6308047;22;20167;-61
2021/10/13 15:53:47;;;;;;;3.53;0.98;;;;;;;;;;6308105;22;20195;-61
2021/10/13 15:56:13;;;;;;;4.03;1.00;;;;;;;;;;6307976;22;20142;-61
2021/10/13 15:58:39;;;;;;;3.53;0.90;;;;;;;;;;6307997;22;20138;-62
2021/10/13 16:01:05;;;;;;;3.63;0.90;;;;;;;;;;6307841;22;20139;-62
2021/10/13 16:03:30;;;;;;;4.57;0.70;;;;;;;;;;6308290;22;20139;-62
2021/10/13 16:05:56;;;;;;;2.38;1.05;;;;;;;;;;6307882;22;20139;-62
2021/10/13 16:08:22;;;;;;;4.40;1.20;;;;;;;;;;6308347;22;20142;-62
2021/10/13 16:10:48;;;;;;;4.85;1.20;;;;;;;;;;6307808;22;20135;-62
2021/10/13 16:13:14;;;;;;;3.97;1.52;;;;;;;;;;6308239;22;20139;-62
2021/10/13 16:15:40;;;;;;;3.13;1.02;;;;;;;;;;6307660;22;20561;-61
2021/10/13 16:18:06;;;;;;;3.30;1.50;;;;;;;;;;6307818;22;20482;-62
2021/10/13 16:20:32;;;;;;;3.63;1.50;;;;;;;;;;6307716;22;20138;-62
2021/10/13 16:22:58;;;;;;;4.97;1.55;;;;;;;;;;6307705;22;20209;-61
2021/10/13 16:25:24;;;;;;;4.05;1.42;;;;;;;;;;6307359;22;20225;-62
2021/10/13 16:27:49;;;;;;;3.60;1.23;;;;;;;;;;6307705;22;20415;-62
2021/10/13 16:30:15;;;;;;;5.35;1.23;;;;;;;;;;6307974;22;20557;-61
2021/10/13 16:32:41;;;;;;;4.07;1.35;;;;;;;;;;6307943;22;20154;-61
2021/10/13 16:35:07;;;;;;;4.30;1.10;;;;;;;;;;6307644;22;20413;-61
2021/10/13 16:37:33;;;;;;;4.40;1.00;;;;;;;;;;6307536;22;20166;-62
2021/10/13 16:39:59;;;;;;;3.50;1.10;;;;;;;;;;6307568;22;20505;-61
2021/10/13 16:42:25;;;;;;;3.53;1.10;;;;;;;;;;6307913;22;20139;-61
2021/10/13 16:44:51;;;;;;;3.28;1.00;;;;;;;;;;6309496;22;20163;-62
2021/10/13 16:47:17;;;;;;;2.25;1.02;;;;;;;;;;6308844;22;20601;-62
2021/10/13 16:49:43;;;;;;;4.70;1.20;;;;;;;;;;6307289;22;20151;-62
2021/10/13 16:52:09;;;;;;;3.53;0.95;;;;;;;;;;6307502;22;20535;-62
2021/10/13 16:54:35;;;;;;;2.92;1.10;;;;;;;;;;6307368;22;20139;-62
2021/10/13 16:57:01;;;;;;;4.65;1.15;;;;;;;;;;6307491;22;20174;-62
2021/10/13 16:59:27;;;;;;;5.97;1.20;;;;;;;;;;6307797;22;20592;-62
2021/10/13 17:01:53;;;;;;;3.22;0.98;;;;;;;;;;6307706;22;20162;-62
2021/10/13 17:04:19;;;;;;;2.60;1.17;;;;;;;;;;6307565;22;20164;-62
2021/10/13 17:06:45;;;;;;;5.47;1.05;;;;;;;;;;6307450;22;20445;-62
2021/10/13 17:09:11;;;;;;;3.85;1.08;;;;;;;;;;6307293;22;20143;-62
2021/10/13 17:11:38;;;;;;;2.03;1.02;;;;;;;;;;6307521;22;20225;-62
2021/10/13 17:14:04;;;;;;;1.75;0.70;;;;;;;;;;6307700;22;20139;-62
2021/10/13 17:16:30;;;;;;;2.63;1.08;;;;;;;;;;6307535;22;20225;-62
2021/10/13 17:18:56;;;;;;;4.35;1.27;;;;;;;;;;6307424;22;20477;-62
2021/10/13 17:21:24;;;;;;;3.38;1.15;;;;;;;;;;6307380;22;20135;-62
2021/10/13 17:23:50;;;;;;;2.78;1.00;;;;;;;;;;6307910;22;20223;-61
2021/10/13 17:26:16;;;;;;;6.93;1.50;;;;;;;;;;6307393;22;20151;-62
2021/10/13 17:28:42;;;;;;;2.45;1.50;;;;;;;;;;6307639;22;20135;-62
2021/10/13 17:31:07;;;;;;;4.28;1.40;;;;;;;;;;6307625;22;20147;-62
2021/10/13 17:33:33;;;;;;;3.88;1.73;;;;;;;;;;6308005;22;20135;-62
2021/10/13 17:36:00;;;;;;;3.33;1.70;;;;;;;;;;6307742;22;20200;-62
2021/10/13 17:38:26;;;;;;;6.00;1.58;;;;;;;;;;6307920;22;20215;-62
2021/10/13 17:40:51;;;;;;;5.30;1.67;;;;;;;;;;6307760;22;20597;-62
2021/10/13 17:43:18;;;;;;;4.25;1.50;;;;;;;;;;6308046;22;20173;-62
2021/10/13 17:45:45;;;;;;;4.63;1.58;;;;;;;;;;6307857;22;20438;-62
2021/10/13 17:48:11;;;;;;;4.85;1.50;;;;;;;;;;6307980;22;20226;-62
2021/10/13 17:50:37;;;;;;;4.45;1.15;;;;;;;;;;6307697;22;20150;-62
2021/10/13 17:53:03;;;;;;;3.45;1.50;;;;;;;;;;6307587;22;20139;-62
2021/10/13 17:55:29;;;;;;;3.83;1.45;;;;;;;;;;6307517;22;20177;-62
2021/10/13 17:57:55;;;;;;;4.03;1.23;;;;;;;;;;6307877;22;20183;-62
2021/10/13 18:00:20;;;;;;;4.40;1.50;;;;;;;;;;6309858;22;20150;-62
2021/10/13 18:02:46;;;;;;;2.72;1.63;;;;;;;;;;6309563;22;20449;-62
2021/10/13 18:05:12;;;;;;;4.60;1.20;;;;;;;;;;6309407;22;20145;-62
2021/10/13 18:07:39;;;;;;;3.60;1.65;;;;;;;;;;6309373;22;20136;-62
2021/10/13 18:10:05;;;;;;;7.50;2.03;;;;;;;;;;6309673;22;20139;-62
2021/10/13 18:12:32;;;;;;;2.10;1.35;;;;;;;;;;6309097;22;20434;-62
2021/10/13 18:14:59;;;;;;;6.00;2.13;;;;;;;;;;6309311;22;20435;-62
2021/10/13 18:17:25;;;;;;;4.60;1.65;;;;;;;;;;6309008;22;20163;-62
2021/10/13 18:19:50;;;;;;;7.40;1.63;;;;;;;;;;6309280;22;20147;-62
2021/10/13 18:22:16;;;;;;;4.43;1.50;;;;;;;;;;6309137;22;20139;-62
2021/10/13 18:24:42;;;;;;;4.20;1.55;;;;;;;;;;6309015;22;20141;-62
2021/10/13 18:27:11;;;;;;;2.97;1.58;;;;;;;;;;6308817;22;20159;-62
2021/10/13 18:29:37;;;;;;;4.65;1.50;;;;;;;;;;6309050;22;20153;-62
2021/10/13 18:32:04;;;;;;;5.38;1.88;;;;;;;;;;6309242;22;20214;-62
2021/10/13 18:34:30;;;;;;;3.70;1.60;;;;;;;;;;6309360;22;20554;-62
2021/10/13 18:36:57;;;;;;;8.23;1.70;;;;;;;;;;6309159;22;20166;-62
2021/10/13 18:39:23;;;;;;;3.72;1.75;;;;;;;;;;6309398;22;20150;-62
2021/10/13 18:41:49;;;;;;;3.35;1.50;;;;;;;;;;6308883;22;20135;-62
2021/10/13 18:44:14;;;;;;;3.60;1.20;;;;;;;;;;6308980;22;20139;-62
2021/10/13 18:46:40;;;;;;;3.53;1.35;;;;;;;;;;6308914;22;20143;-62
2021/10/13 18:49:06;;;;;;;3.00;1.42;;;;;;;;;;6308750;22;20150;-62
2021/10/13 18:51:32;;;;;;;4.63;1.63;;;;;;;;;;6309139;22;20557;-62
2021/10/13 18:53:58;;;;;;;3.22;1.42;;;;;;;;;;6308798;22;20424;-62
2021/10/13 18:56:24;;;;;;;3.42;1.40;;;;;;;;;;6308636;22;20171;-62
2021/10/13 18:58:50;;;;;;;5.22;1.42;;;;;;;;;;6308850;22;20150;-62
2021/10/13 19:01:17;;;;;;;2.88;1.20;;;;;;;;;;6308985;22;20232;-62
2021/10/13 19:03:43;;;;;;;5.57;1.30;;;;;;;;;;6308732;22;20537;-62
2021/10/13 19:06:09;;;;;;;4.40;1.52;;;;;;;;;;6308664;22;20135;-62
2021/10/13 19:08:35;;;;;;;2.00;1.20;;;;;;;;;;6308912;22;20143;-62
2021/10/13 19:11:01;;;;;;;2.15;1.52;;;;;;;;;;6308519;22;20192;-62
2021/10/13 19:13:26;;;;;;;3.70;1.33;;;;;;;;;;6308553;22;20142;-62
2021/10/13 19:15:52;;;;;;;3.15;1.10;;;;;;;;;;6308909;22;20143;-62
2021/10/13 19:18:19;;;;;;;1.52;1.15;;;;;;;;;;6308539;22;20166;-62
2021/10/13 19:20:46;;;;;;;5.15;1.27;;;;;;;;;;6308399;22;20565;-62
2021/10/13 19:23:12;;;;;;;2.58;1.60;;;;;;;;;;6308678;22;20142;-62
2021/10/13 19:25:38;;;;;;;3.67;1.13;;;;;;;;;;6308343;22;20166;-62
2021/10/13 19:28:04;;;;;;;3.80;1.10;;;;;;;;;;6308602;22;20155;-62
2021/10/13 19:30:30;;;;;;;4.35;1.15;;;;;;;;;;6308374;22;20139;-62
2021/10/13 19:32:57;;;;;;;4.00;1.55;;;;;;;;;;6308531;22;20139;-61
2021/10/13 19:35:24;;;;;;;2.33;1.13;;;;;;;;;;6308515;22;20557;-61
2021/10/13 19:37:50;;;;;;;4.00;1.20;;;;;;;;;;6308270;22;20680;-61
2021/10/13 19:40:17;;;;;;;2.58;0.98;;;;;;;;;;6308364;22;20171;-61
2021/10/13 19:42:43;;;;;;;1.90;1.13;;;;;;;;;;6308569;22;20200;-61
2021/10/13 19:45:11;;;;;;;6.07;1.48;;;;;;;;;;6308852;22;20407;-61
2021/10/13 19:47:37;;;;;;;3.03;1.02;;;;;;;;;;6308508;22;20547;-62
2021/10/13 19:50:03;;;;;;;3.95;1.25;;;;;;;;;;6308401;22;20450;-61
2021/10/13 19:52:29;;;;;;;4.80;1.20;;;;;;;;;;6308133;22;20139;-62
2021/10/13 19:54:58;;;;;;;3.53;1.10;;;;;;;;;;6308193;22;20143;-60
2021/10/13 19:57:24;;;;;;;2.38;1.20;;;;;;;;;;6308599;22;20167;-62
2021/10/13 19:59:50;;;;;;;3.05;1.55;;;;;;;;;;6308252;22;20222;-61
2021/10/13 20:02:16;;;;;;;1.77;0.90;;;;;;;;;;6308316;22;20597;-61
2021/10/13 20:04:42;;;;;;;5.90;1.13;;;;;;;;;;6308055;22;20136;-61
2021/10/13 20:07:08;;;;;;;3.25;1.20;;;;;;;;;;6308339;22;20343;-61
2021/10/13 20:09:35;;;;;;;1.45;1.10;;;;;;;;;;6308379;22;20225;-62
2021/10/13 20:12:02;;;;;;;2.13;1.02;;;;;;;;;;6308460;22;20151;-62
2021/10/13 20:14:28;;;;;;;4.28;1.30;;;;;;;;;;6308468;22;20147;-62
2021/10/13 20:16:54;;;;;;;3.15;1.00;;;;;;;;;;6308107;22;20198;-62
2021/10/13 20:19:19;;;;;;;2.50;1.60;;;;;;;;;;6308313;22;20149;-62
2021/10/13 20:21:45;;;;;;;3.88;1.30;;;;;;;;;;6307610;22;20478;-62
2021/10/13 20:24:11;;;;;;;2.58;1.17;;;;;;;;;;6308056;22;20167;-62
2021/10/13 20:26:37;;;;;;;3.47;1.25;;;;;;;;;;6308090;22;20154;-62
2021/10/13 20:29:03;;;;;;;2.97;1.05;;;;;;;;;;6308318;22;20585;-62
2021/10/13 20:31:29;;;;;;;5.72;1.25;;;;;;;;;;6308678;22;20146;-62
2021/10/13 20:33:55;;;;;;;2.45;1.50;;;;;;;;;;6308206;22;20196;-62
2021/10/13 20:36:21;;;;;;;3.90;1.00;;;;;;;;;;6308206;22;20443;-62
2021/10/13 20:38:48;;;;;;;4.97;1.42;;;;;;;;;;6307955;22;20139;-62
2021/10/13 20:41:14;;;;;;;4.32;0.90;;;;;;;;;;6308351;22;20135;-62
2021/10/13 20:43:40;;;;;;;5.97;1.42;;;;;;;;;;6308024;22;20496;-62
2021/10/13 20:46:06;;;;;;;2.90;1.25;;;;;;;;;;6308287;22;20139;-62
2021/10/13 20:48:32;;;;;;;6.72;1.90;;;;;;;;;;6308221;22;20142;-62
2021/10/13 20:50:58;;;;;;;3.65;1.35;;;;;;;;;;6308432;22;20139;-62
2021/10/13 20:53:24;;;;;;;2.83;1.45;;;;;;;;;;6308684;22;20207;-62
2021/10/13 20:55:50;;;;;;;5.93;1.20;;;;;;;;;;6308573;22;20150;-62
2021/10/13 20:58:17;;;;;;;8.23;1.77;;;;;;;;;;6308214;22;20512;-62
2021/10/13 21:00:43;;;;;;;4.07;1.15;;;;;;;;;;6308462;22;20162;-62
2021/10/13 21:03:09;;;;;;;2.83;1.30;;;;;;;;;;6308239;22;20550;-62
2021/10/13 21:05:35;;;;;;;1.83;0.95;;;;;;;;;;6308370;22;20174;-62
2021/10/13 21:08:01;;;;;;;5.47;1.50;;;;;;;;;;6308152;22;20287;-62
2021/10/13 21:10:27;;;;;;;2.85;1.38;;;;;;;;;;6309054;22;20150;-62
2021/10/13 21:12:53;;;;;;;3.33;1.45;;;;;;;;;;6308978;22;20139;-62
2021/10/13 21:15:18;;;;;;;3.17;1.35;;;;;;;;;;6308988;22;20199;-62
2021/10/13 21:17:44;;;;;;;5.25;1.40;;;;;;;;;;6308682;22;20241;-62
2021/10/13 21:20:12;;;;;;;3.30;1.10;;;;;;;;;;6308330;22;20221;-61
2021/10/13 21:22:38;;;;;;;6.78;1.45;;;;;;;;;;6308085;22;20291;-62
2021/10/13 21:25:04;;;;;;;4.43;1.30;;;;;;;;;;6307658;22;20171;-62
2021/10/13 21:27:30;;;;;;;2.80;1.25;;;;;;;;;;6308069;22;20234;-62
2021/10/13 21:29:56;;;;;;;2.83;1.23;;;;;;;;;;6308047;22;20175;-62
2021/10/13 21:32:22;;;;;;;4.47;1.30;;;;;;;;;;6307575;22;20166;-62
2021/10/13 21:34:48;;;;;;;2.72;1.10;;;;;;;;;;6307583;22;20143;-62
2021/10/13 21:37:13;;;;;;;6.30;1.45;;;;;;;;;;6307573;22;20186;-62
2021/10/13 21:39:39;;;;;;;4.28;1.70;;;;;;;;;;6307526;22;20213;-62
2021/10/13 21:42:05;;;;;;;6.00;1.73;;;;;;;;;;6307899;22;20146;-62
2021/10/13 21:44:31;;;;;;;3.95;1.52;;;;;;;;;;6307378;22;20569;-62
2021/10/13 21:46:57;;;;;;;3.72;1.90;;;;;;;;;;6307506;22;20139;-62
2021/10/13 21:49:23;;;;;;;6.50;1.70;;;;;;;;;;6307405;22;20143;-62
2021/10/13 21:51:50;;;;;;;6.10;1.90;;;;;;;;;;6307700;22;20139;-62
2021/10/13 21:54:16;;;;;;;4.32;1.70;;;;;;;;;;6307636;22;20412;-62
2021/10/13 21:56:42;;;;;;;6.32;1.88;;;;;;;;;;6307648;22;20189;-62
2021/10/13 21:59:07;;;;;;;5.43;1.67;;;;;;;;;;6307299;22;20166;-62
2021/10/13 22:01:33;;;;;;;2.80;1.33;;;;;;;;;;6307303;22;20141;-61
2021/10/13 22:03:59;;;;;;;5.47;1.67;;;;;;;;;;6307488;22;20135;-62
2021/10/13 22:06:25;;;;;;;2.55;1.30;;;;;;;;;;6307453;22;20163;-62
2021/10/13 22:08:51;;;;;;;3.15;1.45;;;;;;;;;;6307564;22;20685;-62
2021/10/13 22:11:17;;;;;;;5.25;1.50;;;;;;;;;;6307333;22;20557;-62
2021/10/13 22:13:43;;;;;;;5.57;2.05;;;;;;;;;;6307124;22;20139;-62
2021/10/13 22:16:09;;;;;;;4.30;1.42;;;;;;;;;;6307497;22;20139;-62